createdAt,value
2018-09-15T00:00:56.085Z,8.60
2018-09-15T00:03:25.204Z,8.43
2018-09-15T00:05:54.101Z,10.30
2018-09-15T00:08:22.741Z,9.47
2018-09-15T00:10:51.421Z,9.57
2018-09-15T00:13:21.143Z,10.47
2018-09-15T00:15:50.076Z,9.80
2018-09-15T00:18:19.191Z,9.80
2018-09-15T00:20:47.833Z,9.23
2018-09-15T00:23:16.526Z,8.83
2018-09-15T00:25:45.164Z,9.43
2018-09-15T00:28:13.915Z,9.87
2018-09-15T00:30:43.148Z,9.20
2018-09-15T00:33:11.905Z,11.33
2018-09-15T00:35:40.587Z,8.67
2018-09-15T00:38:09.268Z,8.27
2018-09-15T00:40:37.912Z,11.90
2018-09-15T00:43:06.616Z,11.27
2018-09-15T00:45:35.223Z,11.27
2018-09-15T00:48:03.899Z,9.63
2018-09-15T00:50:32.556Z,10.07
2018-09-15T00:53:01.215Z,10.63
2018-09-15T00:55:29.830Z,8.57
2018-09-15T00:57:58.499Z,9.07
2018-09-15T01:00:27.250Z,8.90
2018-09-15T01:02:55.987Z,13.10
2018-09-15T01:05:24.678Z,9.33
2018-09-15T01:07:53.325Z,9.93
2018-09-15T01:10:22.064Z,9.57
2018-09-15T01:12:50.718Z,16.57
2018-09-15T01:15:19.416Z,9.60
2018-09-15T01:17:48.099Z,10.40
2018-09-15T01:20:16.835Z,10.87
2018-09-15T01:22:45.514Z,10.57
2018-09-15T01:25:14.192Z,9.63
2018-09-15T01:27:42.880Z,10.23
2018-09-15T01:30:11.566Z,8.90
2018-09-15T01:32:40.202Z,9.77
2018-09-15T01:35:08.893Z,7.53
2018-09-15T01:37:37.545Z,10.50
2018-09-15T01:40:06.230Z,7.47
2018-09-15T01:42:34.871Z,9.00
2018-09-15T01:45:03.547Z,9.30
2018-09-15T01:47:32.235Z,10.40
2018-09-15T01:50:00.892Z,10.37
2018-09-15T01:52:29.619Z,12.53
2018-09-15T01:54:58.301Z,12.10
2018-09-15T01:57:27.075Z,10.33
2018-09-15T01:59:55.756Z,10.70
2018-09-15T02:02:24.403Z,10.10
2018-09-15T02:04:53.095Z,8.83
2018-09-15T02:07:21.758Z,10.07
2018-09-15T02:09:50.438Z,9.80
2018-09-15T02:12:19.069Z,8.23
2018-09-15T02:14:47.726Z,10.10
2018-09-15T02:17:16.392Z,8.73
2018-09-15T02:19:45.060Z,8.67
2018-09-15T02:22:13.728Z,10.57
2018-09-15T02:24:42.384Z,11.83
2018-09-15T02:27:11.038Z,12.67
2018-09-15T02:29:39.716Z,8.27
2018-09-15T02:32:08.415Z,8.57
2018-09-15T02:34:37.060Z,9.27
2018-09-15T02:37:05.835Z,12.03
2018-09-15T02:39:34.461Z,9.87
2018-09-15T02:42:03.106Z,12.00
2018-09-15T02:44:31.786Z,8.53
2018-09-15T02:47:00.431Z,11.47
2018-09-15T02:49:29.057Z,11.53
2018-09-15T02:51:57.726Z,8.67
2018-09-15T02:54:26.389Z,10.47
2018-09-15T02:56:55.019Z,9.10
2018-09-15T02:59:23.659Z,7.60
2018-09-15T03:01:52.340Z,8.90
2018-09-15T03:04:21.108Z,11.20
2018-09-15T03:06:49.758Z,8.70
2018-09-15T03:09:18.424Z,7.80
2018-09-15T03:11:47.068Z,9.17
2018-09-15T03:14:15.749Z,9.43
2018-09-15T03:16:44.381Z,11.63
2018-09-15T03:19:13.003Z,9.90
2018-09-15T03:21:41.654Z,11.93
2018-09-15T03:24:10.274Z,10.20
2018-09-15T03:26:38.977Z,9.20
2018-09-15T03:29:07.613Z,8.70
2018-09-15T03:31:36.324Z,9.30
2018-09-15T03:34:05.015Z,9.47
2018-09-15T03:36:33.629Z,9.87
2018-09-15T03:39:02.282Z,8.00
2018-09-15T03:41:31.009Z,8.20
2018-09-15T03:43:59.581Z,8.00
2018-09-15T03:46:28.197Z,8.57
2018-09-15T03:48:56.891Z,10.03
2018-09-15T03:51:25.536Z,10.20
2018-09-15T03:53:54.179Z,7.20
2018-09-15T03:56:22.867Z,7.90
2018-09-15T03:58:51.564Z,9.17
2018-09-15T04:01:20.216Z,7.23
2018-09-15T04:03:48.875Z,7.33
2018-09-15T04:06:17.556Z,10.40
2018-09-15T04:08:46.185Z,7.07
2018-09-15T04:11:14.864Z,10.50
2018-09-15T04:13:43.511Z,12.00
2018-09-15T04:16:12.185Z,8.07
2018-09-15T04:18:40.827Z,9.83
2018-09-15T04:21:09.532Z,10.13
2018-09-15T04:23:38.172Z,9.20
2018-09-15T04:26:06.844Z,8.37
2018-09-15T04:28:35.533Z,11.53
2018-09-15T04:31:04.215Z,12.03
2018-09-15T04:33:33.038Z,8.83
2018-09-15T04:36:01.751Z,9.00
2018-09-15T04:38:30.407Z,11.30
2018-09-15T04:40:59.110Z,13.00
2018-09-15T04:43:27.772Z,11.57
2018-09-15T04:45:56.428Z,12.87
2018-09-15T04:48:25.080Z,11.97
2018-09-15T04:50:53.764Z,14.33
2018-09-15T04:53:22.457Z,12.80
2018-09-15T04:55:51.409Z,13.43
2018-09-15T04:58:20.787Z,14.13
2018-09-15T05:00:49.493Z,14.17
2018-09-15T05:03:18.265Z,15.40
2018-09-15T05:05:46.901Z,16.60
2018-09-15T05:08:15.599Z,13.90
2018-09-15T05:10:44.267Z,12.60
2018-09-15T05:13:13.021Z,14.20
2018-09-15T05:15:41.704Z,14.33
2018-09-15T05:18:10.322Z,13.10
2018-09-15T05:20:38.939Z,16.10
2018-09-15T05:23:07.724Z,14.67
2018-09-15T05:25:36.367Z,14.57
2018-09-15T05:28:05.023Z,20.47
2018-09-15T05:30:33.668Z,16.03
2018-09-15T05:33:02.305Z,13.33
2018-09-15T05:35:30.975Z,15.63
2018-09-15T05:37:59.788Z,16.00
2018-09-15T05:40:28.415Z,14.93
2018-09-15T05:42:57.099Z,14.17
2018-09-15T05:45:26.126Z,14.37
2018-09-15T05:47:54.840Z,11.90
2018-09-15T05:50:23.499Z,14.97
2018-09-15T05:52:52.179Z,12.50
2018-09-15T05:55:20.901Z,12.20
2018-09-15T05:57:49.598Z,15.53
2018-09-15T06:00:23.108Z,15.67
2018-09-15T06:02:51.780Z,12.37
2018-09-15T06:05:20.438Z,14.15
2018-09-15T06:07:49.236Z,12.75
2018-09-15T06:10:17.845Z,33.65
2018-09-15T06:12:46.513Z,15.63
2018-09-15T06:15:15.168Z,14.47
2018-09-15T06:17:43.840Z,14.28
2018-09-15T06:20:12.572Z,14.63
2018-09-15T06:22:41.212Z,16.23
2018-09-15T06:25:09.888Z,14.47
2018-09-15T06:27:38.556Z,15.10
2018-09-15T06:30:11.736Z,17.62
2018-09-15T06:32:40.431Z,17.48
2018-09-15T06:35:09.228Z,14.98
2018-09-15T06:37:37.871Z,15.38
2018-09-15T06:40:06.630Z,14.35
2018-09-15T06:42:35.272Z,16.23
2018-09-15T06:45:04.043Z,13.48
2018-09-15T06:47:32.727Z,16.40
2018-09-15T06:50:01.400Z,14.30
2018-09-15T06:52:30.301Z,19.07
2018-09-15T06:54:58.992Z,15.93
2018-09-15T06:57:27.676Z,15.58
2018-09-15T06:59:56.380Z,17.70
2018-09-15T07:02:25.353Z,16.17
2018-09-15T07:04:54.063Z,15.00
2018-09-15T07:07:22.790Z,15.85
2018-09-15T07:09:51.414Z,15.88
2018-09-15T07:12:20.084Z,16.20
2018-09-15T07:14:48.753Z,16.10
2018-09-15T07:17:17.419Z,16.65
2018-09-15T07:19:46.149Z,17.67
2018-09-15T07:22:14.847Z,15.25
2018-09-15T07:24:43.469Z,14.80
2018-09-15T07:27:12.174Z,15.43
2018-09-15T07:29:40.816Z,18.37
2018-09-15T07:32:09.489Z,17.07
2018-09-15T07:34:38.279Z,13.83
2018-09-15T07:37:07.042Z,14.38
2018-09-15T07:39:35.694Z,15.35
2018-09-15T07:42:04.345Z,17.67
2018-09-15T07:44:33.021Z,14.58
2018-09-15T07:47:01.660Z,14.93
2018-09-15T07:49:30.448Z,14.07
2018-09-15T07:51:59.079Z,16.87
2018-09-15T07:54:27.728Z,16.85
2018-09-15T07:56:56.555Z,16.85
2018-09-15T07:59:25.251Z,15.10
2018-09-15T08:01:54.045Z,14.18
2018-09-15T08:04:22.677Z,12.93
2018-09-15T08:06:51.315Z,15.05
2018-09-15T08:09:20.054Z,13.75
2018-09-15T08:11:48.805Z,13.25
2018-09-15T08:14:17.447Z,13.93
2018-09-15T08:16:46.160Z,12.90
2018-09-15T08:19:14.938Z,14.33
2018-09-15T08:21:43.602Z,13.10
2018-09-15T08:24:12.299Z,13.20
2018-09-15T08:26:40.933Z,15.30
2018-09-15T08:29:09.555Z,12.90
2018-09-15T08:31:38.220Z,13.03
2018-09-15T08:34:06.927Z,17.00
2018-09-15T08:36:35.684Z,16.97
2018-09-15T08:39:05.156Z,12.28
2018-09-15T08:41:33.875Z,17.45
2018-09-15T08:44:02.540Z,15.95
2018-09-15T08:46:31.318Z,16.75
2018-09-15T08:48:59.977Z,12.07
2018-09-15T08:51:28.686Z,12.33
2018-09-15T08:53:57.378Z,13.95
2018-09-15T08:56:26.015Z,13.50
2018-09-15T08:58:54.755Z,13.78
2018-09-15T09:01:23.538Z,13.53
2018-09-15T09:03:52.315Z,14.30
2018-09-15T09:06:20.935Z,12.07
2018-09-15T09:08:49.667Z,9.83
2018-09-15T09:11:18.470Z,10.00
2018-09-15T09:13:47.230Z,13.50
2018-09-15T09:16:16.004Z,11.38
2018-09-15T09:18:45.072Z,12.13
2018-09-15T09:21:13.752Z,9.43
2018-09-15T09:23:42.479Z,11.93
2018-09-15T09:26:11.222Z,8.90
2018-09-15T09:28:39.864Z,11.38
2018-09-15T09:31:08.779Z,11.38
2018-09-15T09:33:37.508Z,8.50
2018-09-15T09:36:06.257Z,9.05
2018-09-15T09:38:35.016Z,8.20
2018-09-15T09:41:03.747Z,8.80
2018-09-15T09:43:32.993Z,9.08
2018-09-15T09:46:04.010Z,10.68
2018-09-15T09:48:32.674Z,12.47
2018-09-15T09:51:01.472Z,8.65
2018-09-15T09:53:30.527Z,8.60
2018-09-15T09:55:59.258Z,9.15
2018-09-15T09:58:28.525Z,10.90
2018-09-15T10:00:58.306Z,12.68
2018-09-15T10:03:27.502Z,9.80
2018-09-15T10:05:56.615Z,8.85
2018-09-15T10:08:25.286Z,8.83
2018-09-15T10:10:54.731Z,9.35
2018-09-15T10:13:24.737Z,9.48
2018-09-15T10:15:53.505Z,8.48
2018-09-15T10:18:22.363Z,9.95
2018-09-15T10:20:51.052Z,10.05
2018-09-15T10:23:19.793Z,9.38
2018-09-15T10:25:48.508Z,9.60
2018-09-15T10:28:17.563Z,9.00
2018-09-15T10:30:46.212Z,9.10
2018-09-15T10:33:15.127Z,9.63
2018-09-15T10:35:43.933Z,10.18
2018-09-15T10:38:12.966Z,11.10
2018-09-15T10:40:42.187Z,9.93
2018-09-15T10:43:10.947Z,8.70
2018-09-15T10:45:39.988Z,8.10
2018-09-15T10:48:08.735Z,10.05
2018-09-15T10:50:37.432Z,8.20
2018-09-15T10:53:06.174Z,7.80
2018-09-15T10:55:34.962Z,9.68
2018-09-15T10:58:03.699Z,8.05
2018-09-15T11:00:32.533Z,8.38
2018-09-15T11:03:01.187Z,7.78
2018-09-15T11:05:29.934Z,7.37
2018-09-15T11:07:58.692Z,7.67
2018-09-15T11:10:27.419Z,9.63
2018-09-15T11:12:56.187Z,8.25
2018-09-15T11:15:24.838Z,7.00
2018-09-15T11:17:53.556Z,7.55
2018-09-15T11:20:22.224Z,7.00
2018-09-15T11:22:50.920Z,6.53
2018-09-15T11:25:19.499Z,6.75
2018-09-15T11:27:48.425Z,7.67
2018-09-15T11:30:17.130Z,7.05
2018-09-15T11:32:45.819Z,7.65
2018-09-15T11:35:14.518Z,7.75
2018-09-15T11:37:43.231Z,7.85
2018-09-15T11:40:11.906Z,9.13
2018-09-15T11:42:40.843Z,10.53
2018-09-15T11:45:09.558Z,8.55
2018-09-15T11:47:38.312Z,7.62
2018-09-15T11:50:07.042Z,8.03
2018-09-15T11:52:36.598Z,10.13
2018-09-15T11:55:05.382Z,7.70
2018-09-15T11:57:34.371Z,10.28
2018-09-15T12:00:04.002Z,7.58
2018-09-15T12:02:33.607Z,7.58
2018-09-15T12:05:03.283Z,8.18
2018-09-15T12:07:32.279Z,9.58
2018-09-15T12:10:01.055Z,7.22
2018-09-15T12:12:30.175Z,9.23
2018-09-15T12:14:59.269Z,8.43
2018-09-15T12:17:28.039Z,7.65
2018-09-15T12:19:57.334Z,7.87
2018-09-15T12:22:26.053Z,7.40
2018-09-15T12:24:54.770Z,9.53
2018-09-15T12:27:23.476Z,8.73
2018-09-15T12:29:52.493Z,7.70
2018-09-15T12:32:21.372Z,8.25
2018-09-15T12:34:51.006Z,7.80
2018-09-15T12:37:19.751Z,8.25
2018-09-15T12:39:48.432Z,9.60
2018-09-15T12:42:17.190Z,8.40
2018-09-15T12:44:45.979Z,9.23
2018-09-15T12:47:14.715Z,8.88
2018-09-15T12:49:43.451Z,8.65
2018-09-15T12:52:12.501Z,7.78
2018-09-15T12:54:41.207Z,8.10
2018-09-15T12:57:09.855Z,7.70
2018-09-15T12:59:38.655Z,8.40
2018-09-15T13:02:07.383Z,9.58
2018-09-15T13:04:36.127Z,8.68
2018-09-15T13:07:04.830Z,8.25
2018-09-15T13:09:33.592Z,7.90
2018-09-15T13:12:02.341Z,8.68
2018-09-15T13:14:31.600Z,8.30
2018-09-15T13:17:00.259Z,8.60
2018-09-15T13:19:28.951Z,9.90
2018-09-15T13:21:57.984Z,9.53
2018-09-15T13:24:26.886Z,8.13
2018-09-15T13:26:55.798Z,8.08
2018-09-15T13:29:24.559Z,9.28
2018-09-15T13:31:53.298Z,8.03
2018-09-15T13:34:22.006Z,10.32
2018-09-15T13:36:50.830Z,9.10
2018-09-15T13:39:19.615Z,8.50
2018-09-15T13:41:48.339Z,11.83
2018-09-15T13:44:17.110Z,8.20
2018-09-15T13:46:45.829Z,9.78
2018-09-15T13:49:14.630Z,8.75
2018-09-15T13:51:43.302Z,9.78
2018-09-15T13:54:12.068Z,10.18
2018-09-15T13:56:40.880Z,10.63
2018-09-15T13:59:09.642Z,13.13
2018-09-15T14:01:38.302Z,13.22
2018-09-15T14:04:06.960Z,12.53
2018-09-15T14:06:35.658Z,10.70
2018-09-15T14:09:05.426Z,9.90
2018-09-15T14:11:34.109Z,9.85
2018-09-15T14:14:02.828Z,10.55
2018-09-15T14:16:31.537Z,10.30
2018-09-15T14:19:00.170Z,10.72
2018-09-15T14:21:28.925Z,10.50
2018-09-15T14:23:57.651Z,10.70
2018-09-15T14:26:26.450Z,10.33
2018-09-15T14:28:55.143Z,9.67
2018-09-15T14:31:24.871Z,10.43
2018-09-15T14:33:54.619Z,11.20
2018-09-15T14:36:23.345Z,10.10
2018-09-15T14:38:52.135Z,10.63
2018-09-15T14:41:20.909Z,10.80
2018-09-15T14:43:49.632Z,10.27
2018-09-15T14:46:18.287Z,10.67
2018-09-15T14:48:46.999Z,15.53
2018-09-15T14:51:15.689Z,11.80
2018-09-15T14:53:44.601Z,10.67
2018-09-15T14:56:13.312Z,12.03
2018-09-15T14:58:45.580Z,11.53
2018-09-15T15:01:14.474Z,12.60
2018-09-15T15:04:00.928Z,20.87
2018-09-15T15:06:29.678Z,14.53
2018-09-15T15:08:58.435Z,14.03
2018-09-15T15:11:27.221Z,13.40
2018-09-15T15:13:55.961Z,14.70
2018-09-15T15:16:24.901Z,11.63
2018-09-15T15:18:53.585Z,12.43
2018-09-15T15:21:22.260Z,13.20
2018-09-15T15:23:50.955Z,12.30
2018-09-15T15:26:19.669Z,11.40
2018-09-15T15:28:48.316Z,11.13
2018-09-15T15:31:17.016Z,12.07
2018-09-15T15:33:45.815Z,13.87
2018-09-15T15:36:14.585Z,11.90
2018-09-15T15:38:43.214Z,11.80
2018-09-15T15:41:11.986Z,11.73
2018-09-15T15:43:40.758Z,11.67
2018-09-15T15:46:09.410Z,12.33
2018-09-15T15:48:38.131Z,12.80
2018-09-15T15:51:06.949Z,13.03
2018-09-15T15:53:35.704Z,12.53
2018-09-15T15:56:04.463Z,13.50
2018-09-15T15:58:33.344Z,13.03
2018-09-15T16:01:01.874Z,13.10
2018-09-15T16:03:30.594Z,16.83
2018-09-15T16:05:59.293Z,13.63
2018-09-15T16:08:27.947Z,12.13
2018-09-15T16:10:56.728Z,13.47
2018-09-15T16:13:25.480Z,13.10
2018-09-15T16:15:54.198Z,13.00
2018-09-15T16:18:23.013Z,12.80
2018-09-15T16:20:51.694Z,12.97
2018-09-15T16:23:20.375Z,13.03
2018-09-15T16:25:49.078Z,12.40
2018-09-15T16:28:17.736Z,13.60
2018-09-15T16:30:46.484Z,13.20
2018-09-15T16:33:15.204Z,13.87
2018-09-15T16:35:43.895Z,14.60
2018-09-15T16:38:12.615Z,12.50
2018-09-15T16:40:41.512Z,12.87
2018-09-15T16:43:10.276Z,12.83
2018-09-15T16:45:38.985Z,13.33
2018-09-15T16:48:07.690Z,11.40
2018-09-15T16:50:36.348Z,16.97
2018-09-15T16:53:05.328Z,74.97
2018-09-15T16:55:34.176Z,48.57
2018-09-15T16:58:02.860Z,12.87
2018-09-15T17:00:31.672Z,15.70
2018-09-15T17:03:00.861Z,11.27
2018-09-15T17:05:29.841Z,12.63
2018-09-15T17:07:58.593Z,11.33
2018-09-15T17:10:27.336Z,12.03
2018-09-15T17:12:56.007Z,11.83
2018-09-15T17:15:24.853Z,15.73
2018-09-15T17:17:53.605Z,12.33
2018-09-15T17:20:22.583Z,13.80
2018-09-15T17:22:51.437Z,14.80
2018-09-15T17:25:20.156Z,14.10
2018-09-15T17:27:48.916Z,13.57
2018-09-15T17:30:17.647Z,14.30
2018-09-15T17:32:46.323Z,14.47
2018-09-15T17:35:14.982Z,15.30
2018-09-15T17:37:43.609Z,12.57
2018-09-15T17:40:12.269Z,13.37
2018-09-15T17:42:40.936Z,17.93
2018-09-15T17:45:09.641Z,14.90
2018-09-15T17:47:38.342Z,13.60
2018-09-15T17:50:07.010Z,13.33
2018-09-15T17:52:35.765Z,13.70
2018-09-15T17:55:04.507Z,14.00
2018-09-15T17:57:33.173Z,13.67
2018-09-15T18:00:01.865Z,14.70
2018-09-15T18:02:30.542Z,15.40
2018-09-15T18:04:59.223Z,18.53
2018-09-15T18:07:27.885Z,19.53
2018-09-15T18:09:56.590Z,19.13
2018-09-15T18:12:25.328Z,17.47
2018-09-15T18:14:54.023Z,15.17
2018-09-15T18:17:22.796Z,15.30
2018-09-15T18:19:51.437Z,17.23
2018-09-15T18:22:20.119Z,15.53
2018-09-15T18:24:48.764Z,16.40
2018-09-15T18:27:17.478Z,16.80
2018-09-15T18:29:46.200Z,15.70
2018-09-15T18:32:15.319Z,18.40
2018-09-15T18:34:44.027Z,16.87
2018-09-15T18:37:12.738Z,18.50
2018-09-15T18:39:41.394Z,17.27
2018-09-15T18:42:10.061Z,17.70
2018-09-15T18:44:38.759Z,17.50
2018-09-15T18:47:07.442Z,16.93
2018-09-15T18:49:36.147Z,16.67
2018-09-15T18:52:04.852Z,17.13
2018-09-15T18:54:33.680Z,17.20
2018-09-15T18:57:02.351Z,18.10
2018-09-15T18:59:31.029Z,17.90
2018-09-15T19:01:59.671Z,19.07
2018-09-15T19:04:28.347Z,18.57
2018-09-15T19:06:56.995Z,18.97
2018-09-15T19:09:25.760Z,19.33
2018-09-15T19:11:54.514Z,17.90
2018-09-15T19:14:23.401Z,17.00
2018-09-15T19:16:52.184Z,17.63
2018-09-15T19:19:20.967Z,17.10
2018-09-15T19:21:49.984Z,17.50
2018-09-15T19:24:18.735Z,16.50
2018-09-15T19:26:47.514Z,16.90
2018-09-15T19:29:16.089Z,16.27
2018-09-15T19:31:44.766Z,16.93
2018-09-15T19:34:13.576Z,16.00
2018-09-15T19:36:42.306Z,17.60
2018-09-15T19:39:13.046Z,15.80
2018-09-15T19:41:41.884Z,15.83
2018-09-15T19:44:10.807Z,16.80
2018-09-15T19:46:39.943Z,15.87
2018-09-15T19:49:09.585Z,16.07
2018-09-15T19:51:38.342Z,15.47
2018-09-15T19:54:07.232Z,15.20
2018-09-15T19:56:35.908Z,16.73
2018-09-15T19:59:04.669Z,16.17
2018-09-15T20:01:33.591Z,15.80
2018-09-15T20:04:02.349Z,16.17
2018-09-15T20:06:31.039Z,15.33
2018-09-15T20:08:59.674Z,15.47
2018-09-15T20:11:28.334Z,15.43
2018-09-15T20:13:57.023Z,14.87
2018-09-15T20:16:24.390Z,14.57
2018-09-15T20:18:51.746Z,15.00
2018-09-15T20:21:19.112Z,15.80
2018-09-15T20:23:47.800Z,14.47
2018-09-15T20:26:16.503Z,15.23
2018-09-15T20:28:45.250Z,17.13
2018-09-15T20:31:13.967Z,15.30
2018-09-15T20:33:42.606Z,15.53
2018-09-15T20:36:11.291Z,13.80
2018-09-15T20:38:39.989Z,14.03
2018-09-15T20:41:08.728Z,13.73
2018-09-15T20:43:37.446Z,13.93
2018-09-15T20:46:06.216Z,14.53
2018-09-15T20:48:34.886Z,14.43
2018-09-15T20:51:03.671Z,14.27
2018-09-15T20:53:32.303Z,16.80
2018-09-15T20:56:01.044Z,14.57
2018-09-15T20:58:29.731Z,13.07
2018-09-15T21:00:58.480Z,14.70
2018-09-15T21:03:27.285Z,13.73
2018-09-15T21:05:55.962Z,14.33
2018-09-15T21:08:24.623Z,13.23
2018-09-15T21:10:53.274Z,13.27
2018-09-15T21:13:21.936Z,13.23
2018-09-15T21:15:50.908Z,13.30
2018-09-15T21:18:19.559Z,13.40
2018-09-15T21:20:48.407Z,13.57
2018-09-15T21:23:17.078Z,14.23
2018-09-15T21:25:45.836Z,12.87
2018-09-15T21:28:14.526Z,13.00
2018-09-15T21:30:43.221Z,12.50
2018-09-15T21:33:11.882Z,13.53
2018-09-15T21:35:40.636Z,12.57
2018-09-15T21:38:09.318Z,11.87
2018-09-15T21:40:38.002Z,12.13
2018-09-15T21:43:06.714Z,12.57
2018-09-15T21:45:35.392Z,12.97
2018-09-15T21:48:04.037Z,12.90
2018-09-15T21:50:32.749Z,12.90
2018-09-15T21:53:01.396Z,12.60
2018-09-15T21:55:30.052Z,13.10
2018-09-15T21:57:58.723Z,12.60
2018-09-15T22:00:27.376Z,13.17
2018-09-15T22:02:56.043Z,13.47
2018-09-15T22:05:24.709Z,12.13
2018-09-15T22:07:53.362Z,12.23
2018-09-15T22:10:22.028Z,12.50
2018-09-15T22:12:50.679Z,12.90
2018-09-15T22:15:23.633Z,12.80
2018-09-15T22:17:52.386Z,12.30
2018-09-15T22:20:21.227Z,11.97
2018-09-15T22:22:50.006Z,12.83
2018-09-15T22:25:18.834Z,11.50
2018-09-15T22:27:48.113Z,11.87
2018-09-15T22:30:18.204Z,11.73
2018-09-15T22:32:46.881Z,13.13
2018-09-15T22:35:18.410Z,13.17
2018-09-15T22:37:47.328Z,12.90
2018-09-15T22:40:16.018Z,11.97
2018-09-15T22:42:44.708Z,12.43
2018-09-15T22:45:13.370Z,11.60
2018-09-15T22:47:42.053Z,13.07
2018-09-15T22:50:10.797Z,12.50
2018-09-15T22:52:39.454Z,12.80
2018-09-15T22:55:08.228Z,12.93
2018-09-15T22:57:37.111Z,12.93
2018-09-15T23:00:06.865Z,12.87
2018-09-15T23:02:35.516Z,13.27
2018-09-15T23:05:04.272Z,13.60
2018-09-15T23:07:33.002Z,13.30
2018-09-15T23:10:01.805Z,13.43
2018-09-15T23:12:30.483Z,13.60
2018-09-15T23:14:59.247Z,13.80
2018-09-15T23:17:27.928Z,14.20
2018-09-15T23:19:56.590Z,12.87
2018-09-15T23:22:25.284Z,12.90
2018-09-15T23:24:54.007Z,14.33
2018-09-15T23:27:22.635Z,14.53
2018-09-15T23:29:51.274Z,13.23
2018-09-15T23:32:19.919Z,14.53
2018-09-15T23:34:48.584Z,14.37
2018-09-15T23:37:17.237Z,14.60
2018-09-15T23:39:45.940Z,14.23
2018-09-15T23:42:14.700Z,14.27
2018-09-15T23:44:43.368Z,14.37
2018-09-15T23:47:12.028Z,14.50
2018-09-15T23:49:40.691Z,14.10
2018-09-15T23:52:09.385Z,14.43
2018-09-15T23:54:38.039Z,15.20
2018-09-15T23:57:06.794Z,13.27
2018-09-15T23:59:35.455Z,13.40
